createdAt,value
2019-02-24T00:00:13.375Z,39.67
2019-02-24T00:01:20.870Z,39.92
2019-02-24T00:02:24.553Z,39.81
2019-02-24T00:03:27.988Z,39.85
2019-02-24T00:04:31.432Z,39.84
2019-02-24T00:05:34.856Z,39.80
2019-02-24T00:06:38.288Z,39.75
2019-02-24T00:07:41.733Z,39.91
2019-02-24T00:08:45.173Z,39.80
2019-02-24T00:09:48.666Z,39.58
2019-02-24T00:10:52.090Z,39.54
2019-02-24T00:11:55.527Z,39.71
2019-02-24T00:12:58.964Z,39.64
2019-02-24T00:14:02.548Z,39.63
2019-02-24T00:15:07.873Z,39.71
2019-02-24T00:16:11.320Z,39.84
2019-02-24T00:17:14.754Z,39.87
2019-02-24T00:18:18.266Z,39.86
2019-02-24T00:19:21.713Z,39.81
2019-02-24T00:20:25.145Z,39.96
2019-02-24T00:21:28.611Z,39.86
2019-02-24T00:22:31.993Z,39.81
2019-02-24T00:23:35.435Z,39.78
2019-02-24T00:24:38.879Z,39.65
2019-02-24T00:25:42.400Z,39.79
2019-02-24T00:26:45.910Z,39.71
2019-02-24T00:27:49.335Z,39.80
2019-02-24T00:28:52.790Z,39.85
2019-02-24T00:29:56.239Z,39.74
2019-02-24T00:30:59.656Z,39.69
2019-02-24T00:32:03.087Z,39.70
2019-02-24T00:33:06.591Z,39.80
2019-02-24T00:34:10.031Z,39.80
2019-02-24T00:35:13.474Z,39.65
2019-02-24T00:36:16.912Z,39.65
2019-02-24T00:37:20.325Z,39.66
2019-02-24T00:38:23.888Z,39.99
2019-02-24T00:39:27.329Z,40.01
2019-02-24T00:40:30.757Z,39.94
2019-02-24T00:41:34.175Z,40.07
2019-02-24T00:42:37.737Z,39.94
2019-02-24T00:43:41.241Z,39.93
2019-02-24T00:44:44.672Z,39.87
2019-02-24T00:45:48.109Z,39.86
2019-02-24T00:46:51.670Z,39.91
2019-02-24T00:47:55.089Z,39.82
2019-02-24T00:48:58.529Z,39.80
2019-02-24T00:50:01.974Z,39.96
2019-02-24T00:51:05.460Z,39.95
2019-02-24T00:52:08.907Z,39.89
2019-02-24T00:53:12.430Z,39.92
2019-02-24T00:54:15.864Z,39.91
2019-02-24T00:55:19.395Z,39.88
2019-02-24T00:56:22.983Z,39.83
2019-02-24T00:57:26.419Z,39.89
2019-02-24T00:58:29.854Z,39.76
2019-02-24T00:59:33.264Z,39.78
2019-02-24T01:00:36.797Z,39.67
2019-02-24T01:01:40.334Z,39.72
2019-02-24T01:02:43.919Z,39.75
2019-02-24T01:03:47.414Z,39.97
2019-02-24T01:04:50.907Z,39.90
2019-02-24T01:05:54.357Z,39.91
2019-02-24T01:06:57.784Z,39.87
2019-02-24T01:08:01.216Z,39.90
2019-02-24T01:09:06.358Z,39.96
2019-02-24T01:10:10.146Z,39.86
2019-02-24T01:11:13.583Z,39.99
2019-02-24T01:12:17.093Z,40.21
2019-02-24T01:13:20.529Z,40.22
2019-02-24T01:14:23.977Z,40.12
2019-02-24T01:15:27.500Z,40.11
2019-02-24T01:16:31.001Z,40.08
2019-02-24T01:17:34.438Z,39.95
2019-02-24T01:18:38.306Z,39.88
2019-02-24T01:19:41.824Z,39.94
2019-02-24T01:20:45.247Z,39.88
2019-02-24T01:21:48.779Z,39.85
2019-02-24T01:22:52.303Z,39.80
2019-02-24T01:23:55.734Z,39.95
2019-02-24T01:24:59.164Z,40.05
2019-02-24T01:26:02.606Z,40.19
2019-02-24T01:27:06.034Z,40.14
2019-02-24T01:28:09.498Z,40.25
2019-02-24T01:29:12.933Z,40.34
2019-02-24T01:30:16.468Z,40.46
2019-02-24T01:31:19.997Z,40.58
2019-02-24T01:32:23.426Z,40.64
2019-02-24T01:33:26.862Z,40.61
2019-02-24T01:34:30.306Z,40.52
2019-02-24T01:35:33.737Z,40.48
2019-02-24T01:36:37.173Z,40.47
2019-02-24T01:37:40.637Z,40.29
2019-02-24T01:38:44.058Z,40.34
2019-02-24T01:39:47.544Z,40.44
2019-02-24T01:40:50.964Z,40.71
2019-02-24T01:41:54.388Z,40.77
2019-02-24T01:42:57.914Z,40.70
2019-02-24T01:44:01.344Z,40.67
2019-02-24T01:45:06.322Z,40.59
2019-02-24T01:46:09.754Z,40.64
2019-02-24T01:47:13.188Z,40.66
2019-02-24T01:48:16.640Z,40.72
2019-02-24T01:49:20.122Z,40.88
2019-02-24T01:50:23.558Z,41.00
2019-02-24T01:51:26.984Z,40.83
2019-02-24T01:52:30.580Z,40.84
2019-02-24T01:53:34.028Z,40.88
2019-02-24T01:54:37.451Z,40.83
2019-02-24T01:55:40.966Z,40.85
2019-02-24T01:56:44.392Z,40.96
2019-02-24T01:57:47.879Z,40.94
2019-02-24T01:58:51.335Z,40.96
2019-02-24T01:59:54.896Z,40.80
2019-02-24T02:00:58.405Z,40.92
2019-02-24T02:02:01.850Z,40.86
2019-02-24T02:03:05.449Z,40.89
2019-02-24T02:04:08.899Z,41.04
2019-02-24T02:05:12.473Z,40.93
2019-02-24T02:06:15.924Z,40.98
2019-02-24T02:07:19.497Z,41.04
2019-02-24T02:08:22.925Z,41.07
2019-02-24T02:09:26.357Z,41.15
2019-02-24T02:10:29.838Z,41.12
2019-02-24T02:11:33.291Z,41.14
2019-02-24T02:12:36.680Z,41.13
2019-02-24T02:13:40.106Z,41.58
2019-02-24T02:14:43.562Z,41.21
2019-02-24T02:15:47.006Z,40.95
2019-02-24T02:16:50.429Z,40.92
2019-02-24T02:17:53.856Z,41.11
2019-02-24T02:18:57.293Z,41.09
2019-02-24T02:20:00.822Z,41.17
2019-02-24T02:21:04.288Z,41.27
2019-02-24T02:22:07.784Z,41.00
2019-02-24T02:23:11.284Z,40.92
2019-02-24T02:24:14.730Z,41.02
2019-02-24T02:25:18.169Z,41.08
2019-02-24T02:26:21.667Z,41.23
2019-02-24T02:27:25.105Z,41.31
2019-02-24T02:28:28.567Z,41.28
2019-02-24T02:29:31.992Z,41.03
2019-02-24T02:30:35.589Z,40.86
2019-02-24T02:31:39.000Z,40.92
2019-02-24T02:32:42.711Z,40.79
2019-02-24T02:33:46.152Z,41.03
2019-02-24T02:34:49.587Z,41.02
2019-02-24T02:35:53.025Z,41.00
2019-02-24T02:36:56.512Z,40.94
2019-02-24T02:37:59.952Z,40.90
2019-02-24T02:39:04.320Z,41.10
2019-02-24T02:40:08.616Z,41.08
2019-02-24T02:41:12.129Z,41.20
2019-02-24T02:42:15.564Z,41.09
2019-02-24T02:43:19.068Z,41.10
2019-02-24T02:44:22.493Z,40.99
2019-02-24T02:45:25.973Z,41.24
2019-02-24T02:46:29.429Z,41.21
2019-02-24T02:47:32.876Z,41.24
2019-02-24T02:48:36.297Z,41.15
2019-02-24T02:49:39.725Z,41.13
2019-02-24T02:50:43.165Z,41.10
2019-02-24T02:51:46.691Z,41.09
2019-02-24T02:52:50.136Z,41.16
2019-02-24T02:53:53.562Z,41.16
2019-02-24T02:54:57.059Z,41.22
2019-02-24T02:56:00.488Z,41.28
2019-02-24T02:57:03.933Z,41.22
2019-02-24T02:58:07.449Z,41.23
2019-02-24T02:59:10.870Z,41.22
2019-02-24T03:00:34.549Z,41.40
2019-02-24T03:01:38.047Z,41.31
2019-02-24T03:02:41.493Z,41.22
2019-02-24T03:03:44.928Z,41.41
2019-02-24T03:04:48.360Z,41.59
2019-02-24T03:06:01.933Z,41.60
2019-02-24T03:07:07.002Z,41.59
2019-02-24T03:08:12.157Z,41.62
2019-02-24T03:09:15.644Z,41.54
2019-02-24T03:10:19.065Z,41.56
2019-02-24T03:11:22.540Z,41.44
2019-02-24T03:12:26.043Z,41.57
2019-02-24T03:13:29.499Z,41.40
2019-02-24T03:14:32.990Z,41.43
2019-02-24T03:15:36.486Z,41.52
2019-02-24T03:16:39.927Z,41.63
2019-02-24T03:17:43.405Z,41.88
2019-02-24T03:18:46.874Z,41.87
2019-02-24T03:19:50.364Z,41.93
2019-02-24T03:20:53.795Z,42.02
2019-02-24T03:21:57.390Z,42.05
2019-02-24T03:23:00.818Z,42.15
2019-02-24T03:24:04.267Z,42.28
2019-02-24T03:25:08.045Z,42.27
2019-02-24T03:26:11.475Z,42.33
2019-02-24T03:27:14.953Z,42.47
2019-02-24T03:28:18.377Z,42.49
2019-02-24T03:29:21.817Z,42.60
2019-02-24T03:30:25.263Z,42.67
2019-02-24T03:31:28.965Z,42.62
2019-02-24T03:32:32.418Z,42.60
2019-02-24T03:33:35.874Z,42.62
2019-02-24T03:34:39.296Z,42.76
2019-02-24T03:35:42.748Z,42.94
2019-02-24T03:36:46.158Z,42.83
2019-02-24T03:37:49.659Z,42.93
2019-02-24T03:38:53.113Z,42.84
2019-02-24T03:39:56.580Z,42.71
2019-02-24T03:41:00.020Z,42.66
2019-02-24T03:42:03.582Z,42.70
2019-02-24T03:43:07.047Z,42.73
2019-02-24T03:44:10.514Z,42.94
2019-02-24T03:45:14.043Z,42.94
2019-02-24T03:46:17.474Z,43.03
2019-02-24T03:47:21.041Z,43.10
2019-02-24T03:48:24.474Z,43.07
2019-02-24T03:49:27.997Z,43.14
2019-02-24T03:50:31.462Z,43.15
2019-02-24T03:51:34.889Z,43.29
2019-02-24T03:52:38.465Z,43.23
2019-02-24T03:53:41.951Z,43.36
2019-02-24T03:54:45.556Z,43.19
2019-02-24T03:55:49.129Z,43.18
2019-02-24T03:56:52.645Z,43.27
2019-02-24T03:57:56.297Z,43.46
2019-02-24T03:58:59.972Z,43.47
2019-02-24T04:00:03.865Z,43.30
2019-02-24T04:01:07.319Z,43.21
2019-02-24T04:02:10.894Z,43.26
2019-02-24T04:03:14.486Z,43.27
2019-02-24T04:04:18.080Z,43.27
2019-02-24T04:05:21.667Z,43.26
2019-02-24T04:06:25.170Z,43.21
2019-02-24T04:07:28.590Z,43.31
2019-02-24T04:08:32.028Z,43.46
2019-02-24T04:09:35.521Z,43.62
2019-02-24T04:10:38.982Z,43.83
2019-02-24T04:11:42.491Z,43.94
2019-02-24T04:12:45.987Z,44.03
2019-02-24T04:13:49.487Z,44.00
2019-02-24T04:14:52.907Z,43.97
2019-02-24T04:15:56.371Z,43.84
2019-02-24T04:16:59.796Z,43.86
2019-02-24T04:18:03.228Z,43.96
2019-02-24T04:19:06.713Z,44.00
2019-02-24T04:20:10.278Z,44.00
2019-02-24T04:21:13.730Z,43.92
2019-02-24T04:22:17.167Z,43.87
2019-02-24T04:23:20.596Z,43.79
2019-02-24T04:24:24.040Z,43.92
2019-02-24T04:25:27.457Z,43.91
2019-02-24T04:26:31.244Z,44.24
2019-02-24T04:27:34.669Z,44.10
2019-02-24T04:28:38.097Z,44.43
2019-02-24T04:29:41.522Z,44.51
2019-02-24T04:30:44.939Z,44.40
2019-02-24T04:31:48.405Z,44.45
2019-02-24T04:32:51.843Z,46.00
2019-02-24T04:33:55.279Z,47.02
2019-02-24T04:34:58.709Z,44.88
2019-02-24T04:36:02.136Z,44.40
2019-02-24T04:37:05.616Z,44.38
2019-02-24T04:38:09.117Z,44.39
2019-02-24T04:39:12.556Z,44.47
2019-02-24T04:40:15.983Z,44.58
2019-02-24T04:41:19.417Z,44.67
2019-02-24T04:42:22.870Z,44.63
2019-02-24T04:43:26.294Z,44.59
2019-02-24T04:44:29.728Z,44.59
2019-02-24T04:45:33.157Z,44.70
2019-02-24T04:46:36.762Z,44.63
2019-02-24T04:47:40.213Z,44.69
2019-02-24T04:48:43.640Z,44.88
2019-02-24T04:49:47.063Z,44.84
2019-02-24T04:50:50.494Z,44.77
2019-02-24T04:51:53.986Z,44.79
2019-02-24T04:52:57.430Z,44.77
2019-02-24T04:54:00.854Z,44.71
2019-02-24T04:55:05.116Z,44.86
2019-02-24T04:56:08.542Z,45.00
2019-02-24T04:57:11.989Z,45.79
2019-02-24T04:58:15.426Z,45.76
2019-02-24T04:59:18.877Z,45.52
2019-02-24T05:00:22.307Z,45.43
2019-02-24T05:01:25.744Z,44.83
2019-02-24T05:02:29.185Z,44.81
2019-02-24T05:03:32.633Z,45.27
2019-02-24T05:04:36.078Z,45.01
2019-02-24T05:05:39.511Z,44.95
2019-02-24T05:06:42.939Z,45.44
2019-02-24T05:07:46.385Z,45.29
2019-02-24T05:08:49.898Z,45.45
2019-02-24T05:09:53.356Z,45.08
2019-02-24T05:10:56.789Z,45.12
2019-02-24T05:12:00.231Z,45.21
2019-02-24T05:13:03.669Z,45.37
2019-02-24T05:14:07.181Z,45.61
2019-02-24T05:15:10.691Z,45.43
2019-02-24T05:16:14.131Z,45.67
2019-02-24T05:17:17.557Z,45.82
2019-02-24T05:18:21.002Z,46.53
2019-02-24T05:19:24.469Z,46.25
2019-02-24T05:20:27.901Z,45.88
2019-02-24T05:21:31.467Z,45.87
2019-02-24T05:22:35.003Z,45.86
2019-02-24T05:23:38.401Z,45.85
2019-02-24T05:24:41.871Z,45.77
2019-02-24T05:25:45.300Z,45.91
2019-02-24T05:26:48.738Z,46.03
2019-02-24T05:27:52.171Z,46.03
2019-02-24T05:28:55.669Z,46.27
2019-02-24T05:29:59.190Z,46.28
2019-02-24T05:31:02.734Z,46.13
2019-02-24T05:32:06.172Z,46.20
2019-02-24T05:33:09.603Z,46.20
2019-02-24T05:34:13.048Z,46.25
2019-02-24T05:35:16.504Z,46.08
2019-02-24T05:36:19.963Z,46.11
2019-02-24T05:37:23.401Z,46.04
2019-02-24T05:38:26.826Z,45.98
2019-02-24T05:39:30.249Z,45.84
2019-02-24T05:40:33.744Z,45.84
2019-02-24T05:41:37.204Z,45.93
2019-02-24T05:42:42.502Z,46.10
2019-02-24T05:43:45.791Z,46.01
2019-02-24T05:44:49.240Z,45.94
2019-02-24T05:45:52.763Z,45.82
2019-02-24T05:46:56.220Z,45.80
2019-02-24T05:47:59.676Z,45.88
2019-02-24T05:49:03.120Z,45.92
2019-02-24T05:50:07.088Z,46.09
2019-02-24T05:51:10.611Z,46.10
2019-02-24T05:52:14.067Z,46.10
2019-02-24T05:53:17.493Z,46.11
2019-02-24T05:54:20.936Z,46.17
2019-02-24T05:55:24.368Z,46.21
2019-02-24T05:56:27.813Z,46.44
2019-02-24T05:57:31.269Z,46.54
2019-02-24T05:58:34.692Z,46.57
2019-02-24T05:59:38.121Z,46.83
2019-02-24T06:00:41.566Z,47.00
2019-02-24T06:01:45.028Z,46.92
2019-02-24T06:02:48.521Z,46.73
2019-02-24T06:03:52.030Z,46.87
2019-02-24T06:04:55.460Z,47.00
2019-02-24T06:05:58.893Z,47.25
2019-02-24T06:07:02.347Z,47.36
2019-02-24T06:08:05.785Z,47.36
2019-02-24T06:09:09.210Z,47.31
2019-02-24T06:10:12.647Z,47.28
2019-02-24T06:11:16.074Z,47.38
2019-02-24T06:12:19.521Z,47.36
2019-02-24T06:13:22.949Z,47.50
2019-02-24T06:14:26.393Z,47.57
2019-02-24T06:15:29.899Z,47.37
2019-02-24T06:16:33.331Z,47.25
2019-02-24T06:17:36.775Z,47.15
2019-02-24T06:18:40.229Z,47.06
2019-02-24T06:19:43.655Z,46.87
2019-02-24T06:20:47.086Z,46.96
2019-02-24T06:21:50.528Z,46.96
2019-02-24T06:22:53.978Z,46.80
2019-02-24T06:23:57.505Z,46.82
2019-02-24T06:25:00.938Z,46.77
2019-02-24T06:26:04.455Z,46.87
2019-02-24T06:27:07.894Z,46.88
2019-02-24T06:28:11.369Z,46.87
2019-02-24T06:29:14.834Z,46.72
2019-02-24T06:30:18.257Z,46.63
2019-02-24T06:31:21.685Z,46.78
2019-02-24T06:32:25.128Z,46.70
2019-02-24T06:33:28.574Z,46.99
2019-02-24T06:34:32.011Z,46.94
2019-02-24T06:35:36.053Z,46.79
2019-02-24T06:36:39.516Z,46.85
2019-02-24T06:37:43.004Z,46.99
2019-02-24T06:38:46.454Z,46.99
2019-02-24T06:39:49.893Z,46.77
2019-02-24T06:40:53.411Z,46.61
2019-02-24T06:41:56.829Z,46.52
2019-02-24T06:43:00.271Z,46.41
2019-02-24T06:44:04.139Z,46.45
2019-02-24T06:45:09.190Z,46.35
2019-02-24T06:46:12.802Z,46.43
2019-02-24T06:47:16.413Z,46.53
2019-02-24T06:48:19.905Z,46.48
2019-02-24T06:49:23.374Z,46.54
2019-02-24T06:50:35.082Z,46.82
2019-02-24T06:51:34.116Z,46.79
2019-02-24T06:52:37.742Z,46.87
2019-02-24T06:53:41.161Z,46.86
2019-02-24T06:54:44.743Z,46.85
2019-02-24T06:55:48.313Z,46.82
2019-02-24T06:56:51.822Z,46.78
2019-02-24T06:57:55.308Z,46.78
2019-02-24T06:58:58.748Z,46.72
2019-02-24T07:00:02.321Z,46.71
2019-02-24T07:01:05.752Z,46.67
2019-02-24T07:02:09.303Z,46.68
2019-02-24T07:03:12.845Z,46.60
2019-02-24T07:04:16.271Z,46.56
2019-02-24T07:05:19.724Z,46.41
2019-02-24T07:06:23.219Z,46.54
2019-02-24T07:07:26.786Z,46.46
2019-02-24T07:08:30.251Z,46.54
2019-02-24T07:09:33.707Z,46.54
2019-02-24T07:10:37.135Z,46.42
2019-02-24T07:11:40.570Z,46.33
2019-02-24T07:12:44.086Z,46.33
2019-02-24T07:13:47.566Z,46.06
2019-02-24T07:14:51.012Z,45.98
2019-02-24T07:15:54.544Z,46.03
2019-02-24T07:16:58.082Z,46.25
2019-02-24T07:18:01.683Z,46.22
2019-02-24T07:19:05.185Z,46.28
2019-02-24T07:20:08.753Z,46.36
2019-02-24T07:21:12.280Z,46.33
2019-02-24T07:22:15.990Z,46.35
2019-02-24T07:23:19.520Z,46.33
2019-02-24T07:24:22.950Z,46.25
2019-02-24T07:25:26.529Z,46.37
2019-02-24T07:26:30.098Z,46.48
2019-02-24T07:27:33.521Z,46.74
2019-02-24T07:28:37.080Z,46.89
2019-02-24T07:29:40.677Z,46.72
2019-02-24T07:30:44.155Z,46.79
2019-02-24T07:31:47.731Z,46.99
2019-02-24T07:32:51.140Z,47.08
2019-02-24T07:33:54.649Z,46.80
2019-02-24T07:34:58.153Z,46.67
2019-02-24T07:36:01.756Z,46.58
2019-02-24T07:37:12.742Z,46.48
2019-02-24T07:38:10.589Z,46.38
2019-02-24T07:39:14.041Z,46.22
2019-02-24T07:40:17.644Z,46.37
2019-02-24T07:41:21.098Z,46.48
2019-02-24T07:42:24.684Z,46.52
2019-02-24T07:43:28.156Z,46.46
2019-02-24T07:44:31.642Z,46.51
2019-02-24T07:45:35.159Z,46.42
2019-02-24T07:46:38.779Z,46.34
2019-02-24T07:47:42.259Z,46.27
2019-02-24T07:48:47.595Z,46.35
2019-02-24T07:49:51.384Z,46.39
2019-02-24T07:50:55.098Z,46.19
2019-02-24T07:51:58.587Z,46.11
2019-02-24T07:53:02.104Z,46.16
2019-02-24T07:54:05.527Z,46.20
2019-02-24T07:55:08.964Z,46.21
2019-02-24T07:56:12.389Z,46.10
2019-02-24T07:57:15.907Z,45.95
2019-02-24T07:58:19.348Z,45.89
2019-02-24T07:59:22.866Z,45.96
2019-02-24T08:00:32.254Z,46.02
2019-02-24T08:01:31.504Z,46.14
2019-02-24T08:02:34.928Z,46.08
2019-02-24T08:03:38.372Z,46.07
2019-02-24T08:04:41.836Z,46.09
2019-02-24T08:05:45.261Z,46.12
2019-02-24T08:06:48.706Z,46.06
2019-02-24T08:07:52.129Z,46.25
2019-02-24T08:08:55.588Z,46.24
2019-02-24T08:09:59.033Z,46.18
2019-02-24T08:11:02.430Z,46.22
2019-02-24T08:12:05.996Z,46.16
2019-02-24T08:13:09.440Z,46.13
2019-02-24T08:14:12.889Z,46.17
2019-02-24T08:15:16.453Z,46.13
2019-02-24T08:16:19.877Z,46.13
2019-02-24T08:17:23.318Z,46.31
2019-02-24T08:18:26.808Z,46.52
2019-02-24T08:19:30.278Z,46.62
2019-02-24T08:20:33.697Z,46.95
2019-02-24T08:21:37.278Z,47.04
2019-02-24T08:22:40.693Z,46.81
2019-02-24T08:23:44.204Z,46.73
2019-02-24T08:24:47.739Z,46.86
2019-02-24T08:25:51.138Z,47.05
2019-02-24T08:26:54.712Z,47.39
2019-02-24T08:27:58.156Z,47.91
2019-02-24T08:29:01.585Z,47.51
2019-02-24T08:30:10.860Z,47.43
2019-02-24T08:31:14.307Z,47.23
2019-02-24T08:32:17.745Z,47.34
2019-02-24T08:33:21.183Z,47.48
2019-02-24T08:34:24.605Z,47.36
2019-02-24T08:35:28.066Z,47.31
2019-02-24T08:36:31.544Z,47.22
2019-02-24T08:37:34.982Z,47.03
2019-02-24T08:38:40.356Z,47.02
2019-02-24T08:39:43.752Z,46.94
2019-02-24T08:40:47.214Z,46.69
2019-02-24T08:41:50.634Z,46.57
2019-02-24T08:42:54.067Z,46.61
2019-02-24T08:43:57.564Z,46.51
2019-02-24T08:45:01.053Z,46.37
2019-02-24T08:46:04.632Z,46.21
2019-02-24T08:47:08.062Z,46.17
2019-02-24T08:48:11.558Z,46.22
2019-02-24T08:49:14.980Z,46.44
2019-02-24T08:50:18.602Z,46.64
2019-02-24T08:51:23.358Z,46.78
2019-02-24T08:52:26.876Z,46.79
2019-02-24T08:53:30.322Z,46.99
2019-02-24T08:54:33.814Z,46.96
2019-02-24T08:55:37.240Z,46.93
2019-02-24T08:56:40.697Z,46.92
2019-02-24T08:57:44.133Z,46.88
2019-02-24T08:58:47.563Z,46.94
2019-02-24T08:59:51.067Z,47.19
2019-02-24T09:00:54.660Z,47.80
2019-02-24T09:01:58.100Z,47.49
2019-02-24T09:03:01.561Z,47.71
2019-02-24T09:04:05.079Z,47.70
2019-02-24T09:05:08.642Z,47.58
2019-02-24T09:06:12.140Z,47.66
2019-02-24T09:07:15.595Z,47.57
2019-02-24T09:08:19.053Z,47.80
2019-02-24T09:09:22.504Z,47.84
2019-02-24T09:10:26.066Z,48.00
2019-02-24T09:11:29.498Z,47.83
2019-02-24T09:12:32.941Z,47.79
2019-02-24T09:13:36.462Z,47.72
2019-02-24T09:14:39.908Z,47.87
2019-02-24T09:15:43.330Z,47.82
2019-02-24T09:16:46.808Z,47.78
2019-02-24T09:17:50.255Z,47.72
2019-02-24T09:18:53.782Z,47.66
2019-02-24T09:19:57.279Z,47.60
2019-02-24T09:21:00.742Z,47.57
2019-02-24T09:22:04.135Z,47.67
2019-02-24T09:23:07.579Z,47.67
2019-02-24T09:24:11.011Z,47.67
2019-02-24T09:25:14.625Z,47.85
2019-02-24T09:26:18.627Z,47.88
2019-02-24T09:27:22.185Z,47.79
2019-02-24T09:28:25.706Z,47.70
2019-02-24T09:29:29.146Z,47.62
2019-02-24T09:30:32.610Z,48.60
2019-02-24T09:31:36.114Z,48.01
2019-02-24T09:32:39.628Z,47.89
2019-02-24T09:33:43.087Z,47.95
2019-02-24T09:34:46.672Z,47.87
2019-02-24T09:35:51.711Z,47.28
2019-02-24T09:36:55.346Z,47.21
2019-02-24T09:37:58.778Z,47.33
2019-02-24T09:39:02.506Z,47.44
2019-02-24T09:40:10.740Z,47.26
2019-02-24T09:41:14.174Z,47.47
2019-02-24T09:42:17.743Z,47.24
2019-02-24T09:43:21.262Z,47.25
2019-02-24T09:44:24.776Z,47.23
2019-02-24T09:45:28.299Z,47.03
2019-02-24T09:46:31.884Z,46.56
2019-02-24T09:47:35.471Z,46.48
2019-02-24T09:48:38.976Z,46.25
2019-02-24T09:49:42.420Z,46.55
2019-02-24T09:50:45.957Z,46.67
2019-02-24T09:51:49.389Z,46.67
2019-02-24T09:52:52.823Z,46.42
2019-02-24T09:53:56.276Z,46.25
2019-02-24T09:54:59.809Z,46.25
2019-02-24T09:56:03.348Z,46.71
2019-02-24T09:57:06.780Z,46.86
2019-02-24T09:58:10.328Z,46.61
2019-02-24T09:59:13.757Z,46.38
2019-02-24T10:00:17.593Z,46.49
2019-02-24T10:01:21.098Z,46.55
2019-02-24T10:02:24.534Z,46.16
2019-02-24T10:03:28.043Z,46.04
2019-02-24T10:04:31.483Z,45.75
2019-02-24T10:05:34.924Z,45.82
2019-02-24T10:06:38.456Z,45.16
2019-02-24T10:07:42.029Z,45.11
2019-02-24T10:08:45.522Z,44.84
2019-02-24T10:09:48.945Z,45.09
2019-02-24T10:10:52.420Z,45.13
2019-02-24T10:11:55.864Z,45.33
2019-02-24T10:12:59.271Z,45.23
2019-02-24T10:14:02.706Z,44.92
2019-02-24T10:15:08.690Z,44.78
2019-02-24T10:16:12.148Z,44.75
2019-02-24T10:17:15.574Z,45.01
2019-02-24T10:18:18.995Z,45.03
2019-02-24T10:19:22.425Z,44.94
2019-02-24T10:20:25.858Z,44.82
2019-02-24T10:21:29.306Z,44.66
2019-02-24T10:22:32.830Z,44.63
2019-02-24T10:23:36.268Z,44.25
2019-02-24T10:24:39.766Z,44.45
2019-02-24T10:25:43.205Z,44.30
2019-02-24T10:26:46.674Z,44.76
2019-02-24T10:27:50.109Z,44.90
2019-02-24T10:28:53.537Z,44.39
2019-02-24T10:29:56.965Z,44.41
2019-02-24T10:31:01.585Z,44.47
2019-02-24T10:32:05.102Z,44.33
2019-02-24T10:33:08.577Z,44.37
2019-02-24T10:34:11.980Z,43.51
2019-02-24T10:35:15.416Z,43.71
2019-02-24T10:36:18.848Z,43.80
2019-02-24T10:37:22.305Z,43.33
2019-02-24T10:38:25.829Z,43.45
2019-02-24T10:39:29.971Z,43.41
2019-02-24T10:40:33.441Z,43.04
2019-02-24T10:41:36.895Z,43.07
2019-02-24T10:42:40.354Z,43.09
2019-02-24T10:43:43.855Z,42.87
2019-02-24T10:44:47.299Z,42.86
2019-02-24T10:45:50.814Z,43.42
2019-02-24T10:46:54.244Z,43.26
2019-02-24T10:47:57.700Z,42.96
2019-02-24T10:49:03.657Z,42.82
2019-02-24T10:50:09.662Z,42.25
2019-02-24T10:51:13.095Z,42.34
2019-02-24T10:52:16.618Z,42.43
2019-02-24T10:53:20.070Z,42.79
2019-02-24T10:54:23.581Z,42.71
2019-02-24T10:55:27.004Z,42.77
2019-02-24T10:56:30.450Z,42.78
2019-02-24T10:57:33.880Z,42.58
2019-02-24T10:58:37.403Z,42.64
2019-02-24T10:59:40.858Z,42.79
2019-02-24T11:00:44.375Z,42.78
2019-02-24T11:01:47.872Z,42.89
2019-02-24T11:02:51.363Z,43.15
2019-02-24T11:03:54.876Z,43.09
2019-02-24T11:04:58.318Z,42.96
2019-02-24T11:06:01.762Z,43.11
2019-02-24T11:07:05.293Z,43.06
2019-02-24T11:08:08.708Z,42.87
2019-02-24T11:09:12.222Z,42.93
2019-02-24T11:10:15.898Z,43.03
2019-02-24T11:11:19.626Z,42.99
2019-02-24T11:12:23.028Z,42.90
2019-02-24T11:13:26.442Z,42.65
2019-02-24T11:14:29.898Z,42.64
2019-02-24T11:15:33.341Z,42.93
2019-02-24T11:16:36.848Z,42.90
2019-02-24T11:17:40.282Z,43.03
2019-02-24T11:18:43.701Z,43.19
2019-02-24T11:19:47.288Z,43.33
2019-02-24T11:20:50.729Z,43.40
2019-02-24T11:21:54.228Z,43.48
2019-02-24T11:22:57.741Z,43.54
2019-02-24T11:24:01.239Z,43.66
2019-02-24T11:25:06.167Z,43.41
2019-02-24T11:26:09.662Z,43.36
2019-02-24T11:27:13.188Z,43.17
2019-02-24T11:28:16.609Z,42.79
2019-02-24T11:29:20.126Z,42.92
2019-02-24T11:30:23.663Z,43.03
2019-02-24T11:31:27.114Z,42.69
2019-02-24T11:32:30.627Z,42.71
2019-02-24T11:33:34.180Z,42.95
2019-02-24T11:34:37.627Z,43.17
2019-02-24T11:35:41.204Z,43.18
2019-02-24T11:36:44.612Z,43.08
2019-02-24T11:37:48.040Z,43.04
2019-02-24T11:38:51.547Z,43.00
2019-02-24T11:39:55.000Z,42.76
2019-02-24T11:40:58.531Z,42.23
2019-02-24T11:42:01.951Z,41.98
2019-02-24T11:43:05.481Z,41.91
2019-02-24T11:44:08.973Z,42.01
2019-02-24T11:45:12.461Z,41.90
2019-02-24T11:46:15.907Z,41.79
2019-02-24T11:47:19.358Z,41.87
2019-02-24T11:48:22.782Z,42.14
2019-02-24T11:49:26.207Z,42.09
2019-02-24T11:50:29.637Z,41.96
2019-02-24T11:51:33.119Z,41.79
2019-02-24T11:52:36.625Z,41.72
2019-02-24T11:53:40.048Z,41.66
2019-02-24T11:54:43.483Z,41.74
2019-02-24T11:55:48.841Z,42.01
2019-02-24T11:56:52.218Z,42.02
2019-02-24T11:57:55.667Z,41.92
2019-02-24T11:58:59.099Z,41.77
2019-02-24T12:00:02.589Z,41.94
2019-02-24T12:01:06.184Z,41.98
2019-02-24T12:02:09.661Z,41.62
2019-02-24T12:03:13.114Z,41.76
2019-02-24T12:04:16.540Z,41.78
2019-02-24T12:05:19.958Z,42.08
2019-02-24T12:06:23.397Z,42.04
2019-02-24T12:07:26.881Z,41.72
2019-02-24T12:08:30.539Z,41.87
2019-02-24T12:09:33.985Z,42.14
2019-02-24T12:10:37.435Z,42.42
2019-02-24T12:11:40.864Z,42.58
2019-02-24T12:12:44.384Z,41.99
2019-02-24T12:13:47.810Z,41.91
2019-02-24T12:14:51.235Z,41.91
2019-02-24T12:15:54.927Z,42.14
2019-02-24T12:16:58.445Z,42.19
2019-02-24T12:18:01.894Z,42.36
2019-02-24T12:19:05.308Z,42.40
2019-02-24T12:20:12.541Z,42.41
2019-02-24T12:21:15.973Z,42.45
2019-02-24T12:22:19.391Z,42.62
2019-02-24T12:23:22.835Z,42.73
2019-02-24T12:24:26.273Z,42.88
2019-02-24T12:25:29.826Z,43.02
2019-02-24T12:26:35.146Z,43.18
2019-02-24T12:27:38.556Z,43.21
2019-02-24T12:28:41.992Z,43.30
2019-02-24T12:29:45.448Z,43.31
2019-02-24T12:30:48.930Z,43.39
2019-02-24T12:31:56.500Z,43.40
2019-02-24T12:32:57.667Z,43.55
2019-02-24T12:34:01.092Z,43.48
2019-02-24T12:35:05.263Z,43.39
2019-02-24T12:36:08.735Z,43.19
2019-02-24T12:37:12.214Z,42.68
2019-02-24T12:38:15.779Z,42.66
2019-02-24T12:39:19.240Z,42.76
2019-02-24T12:40:22.810Z,42.69
2019-02-24T12:41:26.242Z,42.64
2019-02-24T12:42:29.683Z,42.55
2019-02-24T12:43:33.206Z,42.49
2019-02-24T12:44:36.643Z,42.64
2019-02-24T12:45:40.061Z,42.31
2019-02-24T12:46:43.496Z,42.57
2019-02-24T12:47:46.910Z,42.85
2019-02-24T12:48:50.368Z,42.95
2019-02-24T12:50:02.723Z,42.98
2019-02-24T12:50:59.016Z,42.83
2019-02-24T12:52:02.517Z,42.63
2019-02-24T12:53:06.417Z,42.55
2019-02-24T12:54:09.865Z,42.70
2019-02-24T12:55:13.401Z,42.62
2019-02-24T12:56:16.909Z,42.20
2019-02-24T12:57:20.331Z,42.22
2019-02-24T12:58:23.761Z,42.35
2019-02-24T12:59:27.343Z,42.50
2019-02-24T13:00:30.841Z,42.38
2019-02-24T13:01:34.279Z,42.48
2019-02-24T13:02:37.781Z,42.44
2019-02-24T13:03:41.217Z,42.45
2019-02-24T13:04:44.661Z,42.43
2019-02-24T13:05:48.118Z,42.44
2019-02-24T13:06:51.551Z,42.43
2019-02-24T13:07:55.088Z,42.40
2019-02-24T13:08:58.536Z,42.47
2019-02-24T13:10:02.066Z,42.38
2019-02-24T13:11:05.586Z,42.36
2019-02-24T13:12:09.099Z,42.38
2019-02-24T13:13:12.602Z,42.34
2019-02-24T13:14:16.121Z,42.32
2019-02-24T13:15:19.571Z,42.32
2019-02-24T13:16:23.181Z,42.42
2019-02-24T13:17:26.744Z,42.41
2019-02-24T13:18:30.187Z,42.47
2019-02-24T13:19:33.685Z,42.27
2019-02-24T13:20:37.947Z,42.47
2019-02-24T13:21:41.889Z,42.45
2019-02-24T13:22:45.434Z,42.40
2019-02-24T13:23:49.096Z,42.55
2019-02-24T13:24:52.765Z,42.58
2019-02-24T13:25:56.341Z,42.63
2019-02-24T13:26:59.831Z,42.47
2019-02-24T13:28:03.329Z,42.60
2019-02-24T13:29:06.776Z,42.72
2019-02-24T13:30:12.243Z,42.67
2019-02-24T13:31:15.752Z,42.62
2019-02-24T13:32:19.189Z,42.56
2019-02-24T13:33:22.685Z,42.54
2019-02-24T13:34:26.111Z,42.37
2019-02-24T13:35:29.696Z,42.29
2019-02-24T13:36:33.210Z,42.35
2019-02-24T13:37:36.649Z,42.39
2019-02-24T13:38:40.224Z,42.25